createdAt,value
2023-04-25T05:06:25.922Z,12.80
2023-04-25T05:12:21.439Z,12.90
2023-04-25T05:15:19.216Z,12.90
2023-04-25T05:18:10.787Z,13.00
2023-04-25T05:20:58.172Z,13.00
2023-04-25T05:23:48.051Z,13.00
2023-04-25T05:26:35.185Z,13.20
2023-04-25T05:29:15.245Z,13.20
2023-04-25T05:32:08.873Z,13.30
2023-04-25T05:34:37.913Z,13.30
2023-04-25T05:37:09.010Z,13.40
2023-04-25T05:39:49.599Z,13.50
2023-04-25T05:42:38.335Z,13.50
2023-04-25T05:45:25.000Z,13.50
2023-04-25T05:48:28.967Z,13.50
2023-04-25T05:51:17.440Z,13.50
2023-04-25T05:53:59.297Z,13.60
2023-04-25T05:56:30.480Z,13.50
2023-04-25T05:58:58.770Z,13.50
2023-04-25T06:01:27.851Z,13.50
2023-04-25T06:03:56.418Z,13.50
2023-04-25T06:06:25.184Z,13.50
2023-04-25T06:08:53.475Z,13.40
2023-04-25T06:11:21.748Z,13.50
2023-04-25T06:13:51.671Z,13.40
2023-04-25T06:16:20.736Z,13.40
2023-04-25T06:18:48.988Z,13.50
2023-04-25T06:21:17.434Z,13.70
2023-04-25T06:23:46.103Z,13.80
2023-04-25T06:26:21.346Z,14.00
2023-04-25T06:28:51.806Z,14.20
2023-04-25T06:31:20.127Z,14.30
2023-04-25T06:33:50.803Z,14.50
2023-04-25T06:36:19.286Z,14.60
2023-04-25T06:38:55.507Z,14.60
2023-04-25T06:41:23.938Z,14.70
2023-04-25T06:43:53.570Z,14.80
2023-04-25T06:46:40.459Z,14.80
2023-04-25T06:49:08.884Z,14.90
2023-04-25T06:51:37.972Z,15.00
2023-04-25T06:54:06.565Z,15.10
2023-04-25T06:56:42.605Z,15.10
2023-04-25T06:59:16.571Z,15.20
2023-04-25T07:01:47.690Z,15.30
2023-04-25T07:06:55.938Z,15.50
2023-04-25T07:09:34.927Z,15.60
2023-04-25T07:12:06.174Z,15.70
2023-04-25T07:14:37.031Z,15.60
2023-04-25T07:17:07.730Z,15.70
2023-04-25T07:19:37.828Z,15.80
2023-04-25T07:22:06.113Z,15.90
2023-04-25T07:24:35.603Z,16.00
2023-04-25T07:27:04.898Z,16.10
2023-04-25T07:29:54.812Z,16.20
2023-04-25T07:32:25.105Z,16.30
2023-04-25T07:34:53.476Z,16.50
2023-04-25T07:37:21.756Z,16.50
2023-04-25T07:40:06.376Z,16.60
2023-04-25T07:42:34.834Z,16.70
2023-04-25T07:45:05.304Z,16.80
2023-04-25T07:47:33.727Z,16.90
2023-04-25T07:50:02.122Z,16.90
2023-04-25T07:52:32.436Z,17.10
2023-04-25T07:55:14.190Z,17.20
2023-04-25T07:57:51.075Z,17.20
2023-04-25T08:00:21.428Z,17.40
2023-04-25T08:02:57.298Z,17.40
2023-04-25T08:05:26.089Z,17.50
2023-04-25T08:08:03.333Z,17.60
2023-04-25T08:10:32.213Z,17.60
2023-04-25T08:13:00.785Z,17.70
2023-04-25T08:15:30.623Z,17.80
2023-04-25T08:17:59.287Z,17.90
2023-04-25T08:20:27.896Z,17.90
2023-04-25T08:22:58.421Z,18.10
2023-04-25T08:25:53.267Z,18.10
2023-04-25T08:28:25.890Z,18.20
2023-04-25T08:30:55.869Z,18.20
2023-04-25T08:33:24.912Z,18.40
2023-04-25T08:39:01.559Z,18.50
2023-04-25T08:41:30.458Z,18.50
2023-04-25T08:44:01.291Z,18.60
2023-04-25T08:46:32.651Z,18.60
2023-04-25T08:49:28.002Z,18.70
2023-04-25T08:51:59.381Z,18.80
2023-04-25T08:54:35.385Z,18.90
2023-04-25T08:57:06.399Z,18.90
2023-04-25T08:59:36.103Z,19.00
2023-04-25T09:02:07.257Z,19.10
2023-04-25T09:04:36.120Z,19.20
2023-04-25T09:07:04.675Z,19.30
2023-04-25T09:09:33.086Z,19.40
2023-04-25T09:12:02.754Z,19.40
2023-04-25T09:14:31.127Z,19.50
2023-04-25T09:17:21.822Z,19.50
2023-04-25T09:19:53.741Z,19.60
2023-04-25T09:22:29.362Z,19.70
2023-04-25T09:24:57.641Z,19.70
2023-04-25T09:27:29.388Z,19.80
2023-04-25T09:30:17.705Z,19.90
2023-04-25T09:33:08.847Z,19.90
2023-04-25T09:35:39.636Z,20.00
2023-04-25T09:38:11.551Z,20.10
2023-04-25T09:40:58.721Z,20.10
2023-04-25T09:43:39.021Z,20.20
2023-04-25T09:46:10.879Z,20.30
2023-04-25T09:48:50.105Z,20.40
2023-04-25T09:51:20.033Z,20.50
2023-04-25T09:53:52.191Z,20.60
2023-04-25T09:56:38.065Z,20.60
2023-04-25T09:59:09.327Z,20.70
2023-04-25T10:01:41.775Z,20.80
2023-04-25T10:04:18.452Z,21.00
2023-04-25T10:07:07.886Z,21.00
2023-04-25T10:09:39.051Z,20.80
2023-04-25T10:12:08.516Z,20.80
2023-04-25T10:14:37.152Z,20.70
2023-04-25T10:17:05.840Z,20.70
2023-04-25T10:19:35.799Z,20.80
2023-04-25T10:22:09.504Z,20.90
2023-04-25T10:24:38.587Z,21.00
2023-04-25T10:27:06.994Z,21.10
2023-04-25T10:29:35.313Z,21.10
2023-04-25T10:32:04.366Z,21.10
2023-04-25T10:34:44.389Z,21.10
2023-04-25T10:37:12.954Z,21.10
2023-04-25T10:39:42.561Z,21.10
2023-04-25T10:42:10.997Z,21.20
2023-04-25T10:44:39.809Z,21.40
2023-04-25T10:47:09.202Z,21.50
2023-04-25T10:49:38.860Z,21.60
2023-04-25T10:52:15.296Z,21.70
2023-04-25T10:54:44.521Z,21.80
2023-04-25T10:57:31.784Z,21.70
2023-04-25T11:00:07.550Z,21.70
2023-04-25T11:02:39.464Z,21.60
2023-04-25T11:05:08.552Z,21.40
2023-04-25T11:07:40.660Z,21.20
2023-04-25T11:10:09.299Z,21.10
2023-04-25T11:12:37.575Z,20.90
2023-04-25T11:15:06.949Z,20.70
2023-04-25T11:17:35.655Z,20.70
2023-04-25T11:20:07.520Z,20.70
2023-04-25T11:22:35.970Z,20.50
2023-04-25T11:25:09.039Z,20.50
2023-04-25T11:27:39.765Z,20.50
2023-04-25T11:30:16.195Z,20.60
2023-04-25T11:32:44.891Z,20.70
2023-04-25T11:35:13.291Z,20.70
2023-04-25T11:37:41.955Z,20.70
2023-04-25T11:40:12.705Z,20.60
2023-04-25T11:42:41.850Z,20.50
2023-04-25T11:45:10.834Z,20.40
2023-04-25T11:47:39.276Z,20.30
2023-04-25T11:50:09.565Z,20.20
2023-04-25T11:52:38.806Z,20.10
2023-04-25T11:55:09.119Z,20.10
2023-04-25T11:57:41.871Z,20.10
2023-04-25T12:00:18.110Z,20.10
2023-04-25T12:02:49.103Z,20.10
2023-04-25T12:07:49.383Z,20.10
2023-04-25T12:10:18.254Z,20.10
2023-04-25T12:12:48.680Z,20.00
2023-04-25T12:15:18.632Z,19.90
2023-04-25T12:17:47.599Z,19.90
2023-04-25T12:20:16.887Z,19.80
2023-04-25T12:22:47.772Z,19.80
2023-04-25T12:25:35.982Z,19.80
2023-04-25T12:28:15.671Z,19.70
2023-04-25T12:31:00.128Z,19.70
2023-04-25T12:33:29.133Z,19.60
2023-04-25T12:35:58.576Z,19.50
2023-04-25T12:38:27.631Z,19.50
2023-04-25T12:40:56.290Z,19.50
2023-04-25T12:43:29.651Z,19.40
2023-04-25T12:45:58.490Z,19.40
2023-04-25T12:48:27.989Z,19.40
2023-04-25T12:50:56.499Z,19.50
2023-04-25T12:53:25.682Z,19.50
2023-04-25T12:58:31.957Z,19.60
2023-04-25T13:01:00.307Z,19.60
2023-04-25T13:03:28.796Z,19.60
2023-04-25T13:05:57.375Z,19.70
2023-04-25T13:08:26.154Z,19.70
2023-04-25T13:10:54.487Z,19.70
2023-04-25T13:13:23.859Z,19.70
2023-04-25T13:15:53.778Z,19.60
2023-04-25T13:18:22.165Z,19.70
2023-04-25T13:20:50.993Z,19.90
2023-04-25T13:23:19.431Z,20.20
2023-04-25T13:25:49.851Z,20.50
2023-04-25T13:28:18.297Z,20.70
2023-04-25T13:30:49.097Z,20.80
2023-04-25T13:33:18.828Z,20.90
2023-04-25T13:35:48.083Z,21.00
2023-04-25T13:38:16.369Z,21.00
2023-04-25T13:40:44.648Z,21.10
2023-04-25T13:43:12.980Z,21.10
2023-04-25T13:45:41.602Z,21.10
2023-04-25T13:48:10.016Z,21.20
2023-04-25T13:50:40.894Z,21.20
2023-04-25T13:53:09.248Z,21.10
2023-04-25T13:55:37.871Z,20.90
2023-04-25T13:58:11.119Z,20.80
2023-04-25T14:00:41.452Z,20.60
2023-04-25T14:03:09.829Z,20.50
2023-04-25T14:05:40.172Z,20.40
2023-04-25T14:08:10.602Z,20.40
2023-04-25T14:10:39.391Z,20.30
2023-04-25T14:13:10.123Z,20.40
2023-04-25T14:15:39.379Z,20.30
2023-04-25T14:18:08.305Z,20.30
2023-04-25T14:20:36.858Z,20.40
2023-04-25T14:23:05.426Z,20.50
2023-04-25T14:25:35.166Z,20.60
2023-04-25T14:28:03.747Z,20.60
2023-04-25T14:30:32.222Z,20.50
2023-04-25T14:33:00.982Z,20.20
2023-04-25T14:35:29.503Z,20.00
2023-04-25T14:37:57.941Z,20.10
2023-04-25T14:40:26.389Z,20.10
2023-04-25T14:42:56.294Z,20.00
2023-04-25T14:45:24.573Z,20.00
2023-04-25T14:47:53.189Z,20.10
2023-04-25T14:50:21.711Z,20.10
2023-04-25T14:52:50.155Z,20.00
2023-04-25T14:55:18.493Z,19.80
2023-04-25T14:57:46.976Z,19.50
2023-04-25T15:00:17.761Z,19.30
2023-04-25T15:02:48.130Z,19.40
2023-04-25T15:05:17.130Z,19.30
2023-04-25T15:07:45.728Z,19.10
2023-04-25T15:10:17.317Z,19.00
2023-04-25T15:12:47.734Z,18.80
2023-04-25T15:15:25.967Z,18.60
2023-04-25T15:17:59.518Z,18.40
2023-04-25T15:20:28.691Z,18.30
2023-04-25T15:22:57.043Z,18.60
2023-04-25T15:25:25.282Z,18.70
2023-04-25T15:27:54.641Z,18.60
2023-04-25T15:30:24.335Z,18.50
2023-04-25T15:32:52.754Z,18.30
2023-04-25T15:35:21.167Z,18.30
2023-04-25T15:37:49.689Z,18.30
2023-04-25T15:40:18.430Z,18.20
2023-04-25T15:42:48.677Z,18.00
2023-04-25T15:45:18.045Z,17.90
2023-04-25T15:47:49.495Z,17.80
2023-04-25T15:50:18.187Z,17.80
2023-04-25T15:52:46.449Z,17.60
2023-04-25T15:55:14.746Z,17.60
2023-04-25T15:57:43.216Z,17.50
2023-04-25T16:00:13.470Z,17.40
2023-04-25T16:02:42.369Z,17.40
2023-04-25T16:05:14.656Z,17.40
2023-04-25T16:07:43.797Z,17.30
2023-04-25T16:10:12.761Z,17.20
2023-04-25T16:12:41.440Z,17.10
2023-04-25T16:15:10.312Z,16.90
2023-04-25T16:17:38.717Z,16.60
2023-04-25T16:20:10.462Z,16.40
2023-04-25T16:22:41.654Z,16.70
2023-04-25T16:25:10.727Z,16.20
2023-04-25T16:27:39.736Z,16.20
2023-04-25T16:30:09.494Z,16.10
2023-04-25T16:32:38.175Z,16.10
2023-04-25T16:35:06.881Z,16.10
2023-04-25T16:37:35.380Z,16.10
2023-04-25T16:40:06.500Z,16.10
2023-04-25T16:42:34.864Z,16.10
2023-04-25T16:45:03.164Z,16.10
2023-04-25T16:47:31.590Z,16.10
2023-04-25T16:50:01.393Z,16.10
2023-04-25T16:52:29.721Z,16.10
2023-04-25T16:54:58.116Z,16.10
2023-04-25T16:57:27.795Z,16.00
2023-04-25T16:59:56.773Z,15.90
2023-04-25T17:02:25.106Z,16.00
2023-04-25T17:04:53.878Z,15.90
2023-04-25T17:07:24.743Z,15.80
2023-04-25T17:09:53.026Z,15.80
2023-04-25T17:29:48.006Z,14.90
2023-04-25T17:32:17.513Z,14.90
2023-04-25T17:34:46.366Z,14.60
2023-04-25T17:37:17.642Z,14.40
2023-04-25T17:39:50.086Z,14.30
2023-04-25T17:42:18.443Z,14.20
2023-04-25T17:44:48.125Z,14.20
2023-04-25T17:47:17.883Z,14.10
2023-04-25T17:49:46.258Z,13.80
2023-04-25T17:52:14.612Z,13.70
2023-04-25T17:54:42.841Z,13.80
2023-04-25T17:57:11.652Z,13.30
2023-04-25T17:59:40.047Z,13.20
2023-04-25T18:02:10.931Z,13.10
2023-04-25T18:04:39.533Z,12.90
2023-04-25T18:07:07.995Z,12.80
2023-04-25T18:09:36.443Z,12.60
2023-04-25T18:12:04.998Z,12.40
2023-04-25T18:14:35.031Z,12.20
2023-04-25T18:17:04.275Z,12.10
2023-04-25T18:19:35.196Z,12.00
2023-04-25T18:22:04.459Z,12.00
2023-04-25T18:24:33.705Z,12.00
2023-04-25T18:27:02.753Z,12.00
2023-04-25T18:29:33.537Z,12.10
2023-04-25T18:32:04.581Z,12.10
2023-04-25T18:34:36.134Z,12.10
2023-04-25T18:37:04.441Z,12.00
2023-04-25T18:39:32.714Z,12.00
2023-04-25T18:42:06.399Z,12.10
2023-04-25T18:44:39.673Z,12.00
2023-04-25T18:47:09.212Z,11.90
2023-04-25T18:49:39.073Z,12.00
2023-04-25T18:52:10.638Z,11.90
2023-04-25T18:54:39.242Z,11.90
2023-04-25T18:57:07.704Z,11.80
2023-04-25T18:59:36.362Z,11.80
2023-04-25T19:02:05.619Z,11.80
2023-04-25T19:04:34.419Z,11.70
2023-04-25T19:36:52.832Z,11.10
2023-04-25T19:39:21.804Z,11.10
2023-04-25T19:41:50.775Z,11.00
2023-04-25T19:44:20.363Z,10.90
2023-04-25T19:46:50.045Z,10.80
2023-04-25T19:49:18.553Z,10.80
2023-04-25T19:51:46.998Z,10.60
2023-04-25T19:54:16.731Z,10.50
2023-04-25T19:56:45.111Z,10.40
2023-04-25T19:59:13.528Z,10.30
2023-04-25T20:01:41.854Z,10.30
2023-04-25T20:04:10.205Z,10.20
2023-04-25T20:06:38.567Z,10.20
2023-04-25T20:09:09.573Z,10.20
2023-04-25T20:11:39.411Z,10.10
2023-04-25T20:14:07.903Z,10.10
2023-04-25T20:16:36.465Z,10.10
2023-04-25T20:19:05.731Z,10.10
2023-04-25T20:21:34.462Z,10.10
2023-04-25T20:24:05.294Z,10.10
2023-04-25T20:26:34.385Z,10.10
2023-04-25T20:29:07.373Z,10.10
2023-04-25T20:31:37.083Z,10.20
2023-04-25T20:34:05.483Z,10.20
2023-04-25T20:36:33.850Z,10.20
2023-04-25T20:39:02.247Z,10.30
2023-04-25T20:41:31.564Z,10.30
2023-04-25T20:44:01.119Z,10.30
2023-04-25T20:46:31.687Z,10.30
2023-04-25T20:49:01.624Z,10.30
2023-04-25T20:51:30.587Z,10.30
2023-04-25T20:53:58.904Z,10.30
2023-04-25T20:56:27.270Z,10.40
2023-04-25T20:58:56.962Z,10.40
2023-04-25T21:01:25.468Z,10.30
2023-04-25T21:03:55.466Z,10.20
2023-04-25T21:06:24.163Z,10.10
2023-04-25T21:08:52.856Z,10.10
2023-04-25T21:11:21.594Z,10.10
2023-04-25T21:13:50.218Z,10.00
2023-04-25T21:16:18.707Z,9.90
2023-04-25T21:18:47.216Z,9.90
2023-04-25T21:21:16.940Z,9.80
2023-04-25T21:23:45.278Z,9.70
2023-04-25T21:26:13.670Z,9.70
2023-04-25T21:28:41.949Z,9.60
2023-04-25T21:31:10.525Z,9.60
2023-04-25T21:33:38.796Z,9.60
2023-04-25T21:36:07.957Z,9.50
2023-04-25T21:38:38.037Z,9.40
2023-04-25T21:41:06.442Z,9.30
2023-04-25T21:43:34.698Z,9.30
2023-04-25T21:46:22.511Z,9.20
2023-04-25T21:48:53.440Z,9.10
2023-04-25T21:51:22.913Z,8.90
2023-04-25T21:53:53.004Z,8.80
2023-04-25T21:56:21.463Z,8.80
2023-04-25T21:58:50.998Z,8.80
2023-04-25T22:01:19.577Z,8.70
2023-04-25T22:03:47.967Z,8.70
2023-04-25T22:06:16.287Z,8.80
2023-04-25T22:08:44.622Z,8.70
2023-04-25T22:11:14.784Z,8.70
2023-04-25T22:13:43.061Z,8.60
2023-04-25T22:18:42.331Z,8.40
2023-04-25T22:21:10.628Z,8.40
2023-04-25T22:23:39.069Z,8.30
2023-04-25T22:26:07.787Z,8.30
2023-04-25T22:28:37.462Z,8.30
2023-04-25T22:31:06.016Z,8.40
2023-04-25T22:33:34.291Z,8.30
2023-04-25T22:36:02.565Z,8.30
2023-04-25T22:38:31.288Z,8.20
2023-04-25T22:40:59.561Z,8.30
2023-04-25T22:43:29.058Z,8.30
2023-04-25T22:45:59.985Z,8.20
2023-04-25T22:48:28.352Z,8.20
2023-04-25T22:51:02.940Z,8.20
2023-04-25T22:53:34.167Z,8.20
2023-04-25T22:56:03.148Z,8.10
2023-04-25T22:58:31.544Z,8.10
2023-04-25T23:01:02.052Z,8.10
2023-04-25T23:03:32.757Z,8.00
2023-04-25T23:06:01.525Z,8.00
2023-04-25T23:08:29.855Z,8.00
2023-04-25T23:10:59.659Z,8.00
2023-04-25T23:13:28.262Z,8.00
2023-04-25T23:15:56.570Z,8.00
2023-04-25T23:18:26.276Z,8.00
2023-04-25T23:20:54.731Z,8.00
2023-04-25T23:23:23.357Z,7.90
2023-04-25T23:25:52.375Z,8.00
2023-04-25T23:28:20.854Z,7.80
2023-04-25T23:30:49.148Z,7.80
2023-04-25T23:33:17.817Z,7.80
2023-04-25T23:35:47.922Z,7.70
2023-04-25T23:38:17.252Z,7.70
2023-04-25T23:40:45.501Z,7.70
2023-04-25T23:43:13.888Z,7.70
2023-04-25T23:45:44.060Z,7.70
2023-04-25T23:48:12.473Z,7.70
2023-04-25T23:50:41.693Z,7.70
2023-04-25T23:53:11.707Z,7.70
2023-04-25T23:55:40.019Z,7.70
2023-04-25T23:58:08.349Z,7.80
